createdAt,value
2023-01-21T00:02:19.180Z,100029.56
2023-01-21T00:05:22.638Z,100044.16
2023-01-21T00:08:26.644Z,100040.81
2023-01-21T00:11:30.509Z,100051.09
2023-01-21T00:14:33.432Z,100059.59
2023-01-21T00:17:40.255Z,100053.56
2023-01-21T00:20:45.849Z,100054.44
2023-01-21T00:23:48.790Z,100052.66
2023-01-21T00:26:52.756Z,100056.03
2023-01-21T00:29:57.422Z,100063.84
2023-01-21T00:33:00.023Z,100071.53
2023-01-21T00:36:07.435Z,100063.03
2023-01-21T00:39:11.084Z,100061.34
2023-01-21T00:42:15.662Z,100055.22
2023-01-21T00:45:19.178Z,100058.69
2023-01-21T00:48:22.191Z,100056.22
2023-01-21T00:51:25.167Z,100051.88
2023-01-21T00:54:28.803Z,100048.31
2023-01-21T00:57:33.409Z,100045.06
2023-01-21T01:00:37.015Z,100041.50
2023-01-21T01:03:40.966Z,100050.19
2023-01-21T01:06:45.177Z,100066.50
2023-01-21T01:09:48.385Z,100065.59
2023-01-21T01:12:51.439Z,100068.97
2023-01-21T01:15:57.540Z,100071.63
2023-01-21T01:19:08.894Z,100063.84
2023-01-21T01:22:12.589Z,100058.69
2023-01-21T01:25:18.108Z,100054.53
2023-01-21T01:28:22.244Z,100047.53
2023-01-21T01:31:27.088Z,100051.78
2023-01-21T01:34:30.417Z,100051.41
2023-01-21T01:37:33.741Z,100054.84
2023-01-21T01:40:41.153Z,100048.03
2023-01-21T01:43:58.090Z,100056.63
2023-01-21T01:47:03.581Z,100057.72
2023-01-21T01:50:12.191Z,100057.81
2023-01-21T01:53:20.021Z,100063.94
2023-01-21T01:56:23.342Z,100054.53
2023-01-21T01:59:27.473Z,100048.62
2023-01-21T02:02:32.502Z,100036.75
2023-01-21T02:05:37.835Z,100036.16
2023-01-21T02:08:43.116Z,100039.41
2023-01-21T02:11:52.512Z,100040.41
2023-01-21T02:14:55.866Z,100049.00
2023-01-21T02:18:30.644Z,100046.44
2023-01-21T02:21:52.321Z,100040.50
2023-01-21T02:25:30.385Z,100049.88
2023-01-21T02:29:18.902Z,100054.41
2023-01-21T02:32:53.931Z,100056.00
2023-01-21T02:36:02.860Z,100049.28
2023-01-21T02:39:25.473Z,100052.84
2023-01-21T02:42:42.914Z,100043.53
2023-01-21T02:45:58.528Z,100036.63
2023-01-21T02:49:10.729Z,100032.38
2023-01-21T02:52:21.370Z,100031.50
2023-01-21T02:55:29.489Z,100032.38
2023-01-21T02:58:35.648Z,100036.63
2023-01-21T03:01:56.545Z,100035.84
2023-01-21T03:05:11.706Z,100040.00
2023-01-21T03:08:22.797Z,100034.06
2023-01-21T03:11:28.431Z,100033.87
2023-01-21T03:15:17.127Z,100048.59
2023-01-21T03:18:24.535Z,100053.63
2023-01-21T03:21:32.507Z,100062.50
2023-01-21T03:24:38.261Z,100058.97
2023-01-21T03:27:44.943Z,100067.47
2023-01-21T03:30:53.314Z,100075.25
2023-01-21T03:34:01.571Z,100078.44
2023-01-21T03:37:13.293Z,100081.97
2023-01-21T03:40:21.745Z,100096.50
2023-01-21T03:43:24.249Z,100089.78
2023-01-21T03:46:44.430Z,100088.09
2023-01-21T03:49:55.925Z,100087.31
2023-01-21T03:52:59.688Z,100089.00
2023-01-21T03:56:04.449Z,100094.94
2023-01-21T03:59:07.617Z,100094.03
2023-01-21T04:02:10.895Z,100105.19
2023-01-21T04:05:21.035Z,100112.91
2023-01-21T04:08:25.263Z,100117.34
2023-01-21T04:11:28.019Z,100110.34
2023-01-21T04:14:30.851Z,100110.25
2023-01-21T04:17:33.639Z,100114.50
2023-01-21T04:20:36.920Z,100109.34
2023-01-21T04:23:40.596Z,100107.69
2023-01-21T04:26:43.294Z,100104.13
2023-01-21T04:29:47.469Z,100113.59
2023-01-21T04:32:52.650Z,100120.44
2023-01-21T04:36:00.793Z,100133.38
2023-01-21T04:39:04.608Z,100148.78
2023-01-21T04:42:07.898Z,100142.75
2023-01-21T04:45:10.581Z,100141.97
2023-01-21T04:48:13.772Z,100128.22
2023-01-21T04:51:16.686Z,100132.47
2023-01-21T04:54:19.960Z,100141.97
2023-01-21T04:57:22.457Z,100144.63
2023-01-21T05:00:25.425Z,100146.31
2023-01-21T05:03:28.052Z,100149.19
2023-01-21T05:06:31.391Z,100155.09
2023-01-21T05:09:36.710Z,100156.69
2023-01-21T05:12:41.539Z,100170.53
2023-01-21T05:15:44.575Z,100167.94
2023-01-21T05:18:48.353Z,100169.72
2023-01-21T05:21:51.224Z,100174.69
2023-01-21T05:24:56.093Z,100189.19
2023-01-21T05:27:59.479Z,100188.81
2023-01-21T05:31:03.969Z,100192.97
2023-01-21T05:34:07.813Z,100193.53
2023-01-21T05:37:18.567Z,100199.19
2023-01-21T05:40:24.084Z,100217.44
2023-01-21T05:43:43.037Z,100202.13
2023-01-21T05:46:46.028Z,100200.25
2023-01-21T05:49:49.333Z,100208.94
2023-01-21T05:52:52.253Z,100223.56
2023-01-21T05:55:58.017Z,100220.09
2023-01-21T05:59:00.657Z,100223.87
2023-01-21T06:02:05.113Z,100218.03
2023-01-21T06:05:16.180Z,100221.59
2023-01-21T06:08:23.458Z,100216.47
2023-01-21T06:11:28.322Z,100217.47
2023-01-21T06:14:34.201Z,100233.75
2023-01-21T06:17:41.150Z,100241.25
2023-01-21T06:20:48.424Z,100237.03
2023-01-21T06:23:52.727Z,100255.19
2023-01-21T06:26:56.316Z,100247.41
2023-01-21T06:30:01.161Z,100251.16
2023-01-21T06:33:13.364Z,100248.88
2023-01-21T06:36:31.036Z,100244.84
2023-01-21T06:39:36.286Z,100244.84
2023-01-21T06:42:48.001Z,100255.13
2023-01-21T06:45:52.537Z,100257.19
2023-01-21T06:48:56.051Z,100254.72
2023-01-21T06:52:01.786Z,100248.78
2023-01-21T06:55:12.443Z,100248.59
2023-01-21T06:58:25.064Z,100262.72
2023-01-21T07:01:31.547Z,100267.78
2023-01-21T07:04:37.138Z,100268.75
2023-01-21T07:07:42.251Z,100282.50
2023-01-21T07:10:58.049Z,100290.31
2023-01-21T07:14:02.177Z,100301.37
2023-01-21T07:17:22.999Z,100308.50
2023-01-21T07:20:32.469Z,100323.25
2023-01-21T07:23:50.051Z,100321.25
2023-01-21T07:26:53.878Z,100333.91
2023-01-21T07:30:01.426Z,100342.31
2023-01-21T07:33:09.141Z,100343.78
2023-01-21T07:36:14.095Z,100333.69
2023-01-21T07:39:20.119Z,100345.06
2023-01-21T07:42:25.162Z,100344.19
2023-01-21T07:45:29.857Z,100345.28
2023-01-21T07:48:35.133Z,100350.72
2023-01-21T07:51:42.304Z,100348.59
2023-01-21T07:54:51.985Z,100349.19
2023-01-21T07:58:02.656Z,100342.69
2023-01-21T08:01:18.207Z,100350.28
2023-01-21T08:04:26.689Z,100356.13
2023-01-21T08:07:32.570Z,100365.31
2023-01-21T08:10:40.275Z,100364.91
2023-01-21T08:13:49.315Z,100363.03
2023-01-21T08:16:58.580Z,100355.84
2023-01-21T08:20:02.062Z,100363.06
2023-01-21T08:23:12.139Z,100351.09
2023-01-21T08:26:30.107Z,100358.13
2023-01-21T08:29:34.126Z,100364.25
2023-01-21T08:32:51.103Z,100376.72
2023-01-21T08:36:16.786Z,100383.16
2023-01-21T08:39:31.104Z,100380.38
2023-01-21T08:42:35.648Z,100379.87
2023-01-21T08:45:41.525Z,100383.84
2023-01-21T08:48:46.298Z,100390.78
2023-01-21T08:51:53.094Z,100390.28
2023-01-21T08:54:57.526Z,100394.22
2023-01-21T08:58:01.398Z,100387.59
2023-01-21T09:01:15.047Z,100390.81
2023-01-21T09:04:22.068Z,100396.94
2023-01-21T09:07:31.553Z,100388.38
2023-01-21T09:10:58.064Z,100388.69
2023-01-21T09:14:05.100Z,100390.38
2023-01-21T09:17:14.051Z,100400.78
2023-01-21T09:20:22.089Z,100396.44
2023-01-21T09:23:41.008Z,100406.91
2023-01-21T09:26:46.635Z,100402.25
2023-01-21T09:30:01.416Z,100398.19
2023-01-21T09:33:16.041Z,100397.28
2023-01-21T09:36:27.366Z,100396.72
2023-01-21T09:39:31.639Z,100398.38
2023-01-21T09:42:39.092Z,100391.31
2023-01-21T09:45:45.558Z,100396.84
2023-01-21T09:48:49.807Z,100402.69
2023-01-21T09:52:15.104Z,100390.25
2023-01-21T09:55:30.064Z,100388.59
2023-01-21T09:58:57.019Z,100385.31
2023-01-21T10:02:04.043Z,100397.59
2023-01-21T10:05:28.812Z,100401.16
2023-01-21T10:08:56.835Z,100400.97
2023-01-21T10:12:23.498Z,100397.88
2023-01-21T10:15:35.644Z,100404.56
2023-01-21T10:18:42.828Z,100400.91
2023-01-21T10:22:01.861Z,100402.56
2023-01-21T10:25:20.903Z,100412.88
2023-01-21T10:28:30.519Z,100407.66
2023-01-21T10:31:46.148Z,100405.78
2023-01-21T10:34:58.126Z,100406.53
2023-01-21T10:38:17.984Z,100422.81
2023-01-21T10:41:46.074Z,100415.88
2023-01-21T10:45:30.014Z,100424.91
2023-01-21T10:48:51.059Z,100419.34
2023-01-21T10:52:10.158Z,100419.47
2023-01-21T10:55:38.236Z,100416.19
2023-01-21T10:58:48.229Z,100422.50
2023-01-21T11:02:34.165Z,100411.41
2023-01-21T11:05:43.164Z,100409.34
2023-01-21T11:09:03.152Z,100404.81
2023-01-21T11:12:18.659Z,100404.25
2023-01-21T11:15:35.317Z,100404.25
2023-01-21T11:18:42.478Z,100397.88
2023-01-21T11:22:14.105Z,100396.44
2023-01-21T11:25:41.517Z,100396.19
2023-01-21T11:28:54.083Z,100394.66
2023-01-21T11:32:19.687Z,100395.47
2023-01-21T11:35:33.198Z,100390.47
2023-01-21T11:38:42.125Z,100388.34
2023-01-21T11:41:56.240Z,100388.47
2023-01-21T11:45:06.205Z,100391.62
2023-01-21T11:48:21.268Z,100403.44
2023-01-21T11:51:29.003Z,100391.78
2023-01-21T11:54:42.157Z,100391.97
2023-01-21T11:57:51.187Z,100394.88
2023-01-21T12:00:59.138Z,100398.72
2023-01-21T12:04:04.015Z,100400.72
2023-01-21T12:07:20.299Z,100389.03
2023-01-21T12:10:41.307Z,100399.78
2023-01-21T12:14:03.103Z,100401.69
2023-01-21T12:17:40.062Z,100406.25
2023-01-21T12:21:05.074Z,100410.81
2023-01-21T12:24:31.607Z,100403.59
2023-01-21T12:27:57.274Z,100414.88
2023-01-21T12:31:21.939Z,100419.25
2023-01-21T12:34:44.016Z,100416.53
2023-01-21T12:38:13.140Z,100426.87
2023-01-21T12:41:26.964Z,100425.72
2023-01-21T12:44:54.383Z,100425.66
2023-01-21T12:48:11.203Z,100430.13
2023-01-21T12:51:25.102Z,100425.94
2023-01-21T12:54:53.030Z,100425.66
2023-01-21T12:58:12.377Z,100427.75
2023-01-21T13:01:41.375Z,100438.72
2023-01-21T13:04:55.904Z,100435.50
2023-01-21T13:08:25.123Z,100439.84
2023-01-21T13:11:40.029Z,100444.63
2023-01-21T13:14:50.516Z,100438.16
2023-01-21T13:18:03.256Z,100441.25
2023-01-21T13:21:42.026Z,100451.75
2023-01-21T13:25:02.284Z,100456.78
2023-01-21T13:28:24.111Z,100455.22
2023-01-21T13:31:53.059Z,100457.91
2023-01-21T13:35:24.917Z,100466.72
2023-01-21T13:38:34.399Z,100463.84
2023-01-21T13:42:05.906Z,100467.09
2023-01-21T13:45:38.302Z,100472.47
2023-01-21T13:49:10.952Z,100477.31
2023-01-21T13:52:41.008Z,100474.44
2023-01-21T13:56:26.326Z,100484.94
2023-01-21T13:59:42.431Z,100485.75
2023-01-21T14:03:02.308Z,100488.00
2023-01-21T14:06:19.377Z,100491.75
2023-01-21T14:09:38.389Z,100493.66
2023-01-21T14:12:51.068Z,100497.41
2023-01-21T14:16:31.300Z,100497.41
2023-01-21T14:20:09.965Z,100499.91
2023-01-21T14:23:28.150Z,100502.16
2023-01-21T14:26:48.974Z,100514.56
2023-01-21T14:30:20.731Z,100509.50
2023-01-21T14:33:37.923Z,100512.97
2023-01-21T14:36:52.958Z,100517.63
2023-01-21T14:40:20.115Z,100523.47
2023-01-21T14:43:56.046Z,100516.44
2023-01-21T14:47:17.052Z,100516.22
2023-01-21T14:50:55.183Z,100516.03
2023-01-21T14:54:18.199Z,100525.44
2023-01-21T14:57:38.454Z,100527.81
2023-01-21T15:01:03.991Z,100527.31
2023-01-21T15:04:30.114Z,100529.88
2023-01-21T15:07:40.043Z,100534.34
2023-01-21T15:11:04.172Z,100535.59
2023-01-21T15:14:32.446Z,100545.47
2023-01-21T15:17:46.115Z,100543.13
2023-01-21T15:21:06.918Z,100557.31
2023-01-21T15:24:44.009Z,100555.22
2023-01-21T15:28:28.008Z,100550.88
2023-01-21T15:31:46.181Z,100558.38
2023-01-21T15:34:57.178Z,100559.19
2023-01-21T15:38:15.974Z,100557.22
2023-01-21T15:41:28.048Z,100562.06
2023-01-21T15:44:54.934Z,100558.38
2023-01-21T15:48:43.930Z,100568.59
2023-01-21T15:51:53.181Z,100565.78
2023-01-21T15:55:11.020Z,100571.53
2023-01-21T15:58:33.046Z,100576.19
2023-01-21T16:01:47.993Z,100577.97
2023-01-21T16:05:22.936Z,100575.50
2023-01-21T16:09:02.007Z,100579.56
2023-01-21T16:12:35.970Z,100596.78
2023-01-21T16:15:57.038Z,100601.59
2023-01-21T16:19:10.966Z,100606.84
2023-01-21T16:22:23.606Z,100612.88
2023-01-21T16:25:37.082Z,100612.78
2023-01-21T16:28:50.351Z,100615.25
2023-01-21T16:31:59.694Z,100616.16
2023-01-21T16:35:13.918Z,100619.72
2023-01-21T16:38:23.069Z,100616.66
2023-01-21T16:41:33.238Z,100621.59
2023-01-21T16:44:47.181Z,100619.13
2023-01-21T16:47:57.371Z,100626.19
2023-01-21T16:51:02.217Z,100621.13
2023-01-21T16:54:26.151Z,100624.50
2023-01-21T16:57:33.127Z,100621.13
2023-01-21T17:00:45.032Z,100624.50
2023-01-21T17:04:01.363Z,100631.31
2023-01-21T17:07:06.048Z,100630.31
2023-01-21T17:10:39.951Z,100630.31
2023-01-21T17:13:43.970Z,100627.84
2023-01-21T17:16:54.294Z,100634.56
2023-01-21T17:20:05.254Z,100627.37
2023-01-21T17:23:26.082Z,100631.28
2023-01-21T17:26:36.991Z,100630.50
2023-01-21T17:29:43.470Z,100624.56
2023-01-21T17:33:11.995Z,100628.16
2023-01-21T17:36:31.449Z,100639.00
2023-01-21T17:40:04.905Z,100636.31
2023-01-21T17:43:24.057Z,100646.59
2023-01-21T17:46:32.448Z,100647.50
2023-01-21T17:49:39.044Z,100647.06
2023-01-21T17:53:03.872Z,100648.97
2023-01-21T17:56:21.857Z,100657.78
2023-01-21T17:59:38.374Z,100655.31
2023-01-21T18:02:43.464Z,100667.75
2023-01-21T18:06:08.958Z,100666.66
2023-01-21T18:09:20.234Z,100666.53
2023-01-21T18:12:29.526Z,100672.09
2023-01-21T18:15:36.297Z,100685.09
2023-01-21T18:18:41.329Z,100680.50
2023-01-21T18:21:52.931Z,100694.28
2023-01-21T18:25:03.030Z,100680.84
2023-01-21T18:28:31.660Z,100687.06
2023-01-21T18:31:49.064Z,100682.62
2023-01-21T18:34:56.928Z,100688.88
2023-01-21T18:38:00.724Z,100678.38
2023-01-21T18:41:13.647Z,100692.91
2023-01-21T18:44:23.872Z,100692.91
2023-01-21T18:47:31.032Z,100699.94
2023-01-21T18:50:43.093Z,100697.06
2023-01-21T18:53:47.839Z,100697.16
2023-01-21T18:57:00.138Z,100708.34
2023-01-21T19:00:32.999Z,100706.00
2023-01-21T19:03:39.066Z,100716.66
2023-01-21T19:06:55.606Z,100715.06
2023-01-21T19:10:08.202Z,100724.38
2023-01-21T19:13:18.217Z,100725.94
2023-01-21T19:16:27.092Z,100727.16
2023-01-21T19:19:38.095Z,100731.63
2023-01-21T19:22:52.035Z,100746.19
2023-01-21T19:26:01.167Z,100740.72
2023-01-21T19:29:07.863Z,100745.84
2023-01-21T19:32:15.190Z,100746.19
2023-01-21T19:35:32.427Z,100751.09
2023-01-21T19:38:51.392Z,100748.87
2023-01-21T19:42:07.594Z,100757.72
2023-01-21T19:45:15.245Z,100750.56
2023-01-21T19:48:28.987Z,100745.53
2023-01-21T19:51:38.140Z,100745.31
2023-01-21T19:54:42.911Z,100737.38
2023-01-21T19:57:55.935Z,100742.97
2023-01-21T20:01:01.435Z,100738.84
2023-01-21T20:04:11.380Z,100740.16
2023-01-21T20:07:20.982Z,100737.72
2023-01-21T20:10:30.522Z,100743.19
2023-01-21T20:13:40.923Z,100741.41
2023-01-21T20:16:51.929Z,100738.63
2023-01-21T20:20:00.183Z,100738.50
2023-01-21T20:23:18.011Z,100748.56
2023-01-21T20:26:29.976Z,100749.13
2023-01-21T20:29:36.039Z,100752.28
2023-01-21T20:32:43.898Z,100753.81
2023-01-21T20:35:52.095Z,100762.87
2023-01-21T20:38:57.857Z,100761.88
2023-01-21T20:42:12.104Z,100762.66
2023-01-21T20:45:32.180Z,100761.56
2023-01-21T20:48:43.982Z,100760.78
2023-01-21T20:51:55.365Z,100755.97
2023-01-21T20:55:00.211Z,100750.47
2023-01-21T20:58:22.279Z,100747.91
2023-01-21T21:01:31.576Z,100752.16
2023-01-21T21:04:44.861Z,100751.63
2023-01-21T21:07:48.860Z,100758.78
2023-01-21T21:11:03.912Z,100759.66
2023-01-21T21:14:09.475Z,100757.19
2023-01-21T21:17:18.124Z,100760.88
2023-01-21T21:20:30.403Z,100754.06
2023-01-21T21:23:47.952Z,100766.91
2023-01-21T21:27:04.947Z,100762.66
2023-01-21T21:30:23.168Z,100774.06
2023-01-21T21:33:28.088Z,100775.41
2023-01-21T21:36:32.342Z,100772.06
2023-01-21T21:39:41.238Z,100762.34
2023-01-21T21:43:04.055Z,100773.75
2023-01-21T21:46:37.875Z,100773.75
2023-01-21T21:49:43.945Z,100779.09
2023-01-21T21:52:49.232Z,100790.72
2023-01-21T21:55:52.938Z,100780.56
2023-01-21T21:59:04.973Z,100784.12
2023-01-21T22:02:19.885Z,100781.44
2023-01-21T22:05:26.734Z,100785.13
2023-01-21T22:08:34.724Z,100785.59
2023-01-21T22:11:46.355Z,100782.69
2023-01-21T22:14:50.014Z,100779.44
2023-01-21T22:18:00.932Z,100768.59
2023-01-21T22:21:11.209Z,100779.31
2023-01-21T22:24:22.939Z,100776.06
2023-01-21T22:27:27.980Z,100768.69
2023-01-21T22:30:34.747Z,100769.81
2023-01-21T22:33:39.022Z,100766.91
2023-01-21T22:36:48.471Z,100772.72
2023-01-21T22:39:55.612Z,100763.69
2023-01-21T22:43:00.282Z,100760.31
2023-01-21T22:46:04.162Z,100762.31
2023-01-21T22:49:11.555Z,100752.91
2023-01-21T22:52:20.779Z,100762.66
2023-01-21T22:55:24.270Z,100756.59
2023-01-21T22:58:30.943Z,100760.19
2023-01-21T23:01:41.593Z,100768.56
2023-01-21T23:04:45.903Z,100776.50
2023-01-21T23:07:49.919Z,100772.59
2023-01-21T23:11:01.328Z,100765.66
2023-01-21T23:14:05.436Z,100768.56
2023-01-21T23:17:10.603Z,100754.69
2023-01-21T23:20:17.091Z,100762.66
2023-01-21T23:23:21.305Z,100762.66
2023-01-21T23:26:28.968Z,100770.00
2023-01-21T23:29:37.975Z,100772.81
2023-01-21T23:32:43.535Z,100764.66
2023-01-21T23:35:55.414Z,100771.81
2023-01-21T23:38:58.931Z,100780.66
2023-01-21T23:42:02.605Z,100776.16
2023-01-21T23:45:05.968Z,100761.50
2023-01-21T23:48:09.928Z,100772.28
2023-01-21T23:51:15.426Z,100770.47
2023-01-21T23:54:18.515Z,100773.16
2023-01-21T23:57:21.204Z,100774.06
